I Maria — V3YI3 — position and weather

sailwx.info

Track history (hours):
 
Tides and Currents Weather Stations Pressure Air Temp Water Temp Dewpoint Dewpoint Depression Visibility Wind Speed Wind Dir Waves Ship Positions

I Maria

Last reported at 2018-Feb-06 18:46 UTC. Time now 2018-Feb-20 00:17 UTC.
Position N 43°39' E 028°52'.
Warning: this ship's position is 13 days out of date.

Length 180 m; draft 9.9 m.

Type: Cargo ship. MMSI: 312175000.

Date/timePositionNaut miles runAvg speedWind from/ knotsBaromVisibWave heightAir tempDewpointWater temp
2018-Feb-06 18:46N 43°39' E 028°52'3 9.7
2018-Feb-06 18:30N 43°41' E 028°52'5 9.6
2018-Feb-06 18:00N 43°46' E 028°51'5 9.6
2018-Feb-06 17:30N 43°51' E 028°50'5 9.4
2018-Feb-06 17:00N 43°55' E 028°49'5 9.2
2018-Feb-06 16:30N 43°60' E 028°47'5 9.1
2018-Feb-06 16:00N 44°03' E 028°43'4 7.5
2018-Feb-06 15:30N 44°07' E 028°41'3 5.4
2018-Feb-06 15:00N 44°09' E 028°40'0 0.8
2018-Feb-06 14:25N 44°09' E 028°39'0 0.0
2018-Feb-06 13:53N 44°09' E 028°39'0 0.0
2018-Feb-06 13:23N 44°09' E 028°39'0 0.0
2018-Feb-06 12:56N 44°09' E 028°39'0 0.0
2018-Feb-06 12:25N 44°09' E 028°39'0 0.0
2018-Feb-06 11:59N 44°09' E 028°39'0 0.0
2018-Feb-06 11:21N 44°09' E 028°39'0 0.0
2018-Feb-06 11:00N 44°09' E 028°39'0 0.0
2018-Feb-06 10:28N 44°09' E 028°39'0 0.0
2018-Feb-06 10:00N 44°09' E 028°39'0 0.0
2018-Feb-06 09:30N 44°09' E 028°39'0 0.0
2018-Feb-06 08:54N 44°09' E 028°39'0 0.0
2018-Feb-06 08:29N 44°09' E 028°39'0 0.0
2018-Feb-06 08:00N 44°09' E 028°39'0 0.0
2018-Feb-06 07:28N 44°09' E 028°39'0 0.0
2018-Feb-06 07:00N 44°09' E 028°39'0 0.0
2018-Feb-06 06:29N 44°09' E 028°39'0 0.0
2018-Feb-06 06:00N 44°09' E 028°39'0 0.0
2018-Feb-06 05:28N 44°09' E 028°39'0 0.0
2018-Feb-06 04:58N 44°09' E 028°39'0 0.0
2018-Feb-06 04:30N 44°09' E 028°39'0 0.0
2018-Feb-06 04:00N 44°09' E 028°39'0 0.0
2018-Feb-06 03:29N 44°09' E 028°39'0 0.0
2018-Feb-06 02:58N 44°09' E 028°39'0 0.0
2018-Feb-06 02:30N 44°09' E 028°39'0 0.0
2018-Feb-06 02:00N 44°09' E 028°39'0 0.0
2018-Feb-06 01:30N 44°09' E 028°39'0 0.0
2018-Feb-06 00:59N 44°09' E 028°39'0 0.0
2018-Feb-06 00:28N 44°09' E 028°39'0 0.0
2018-Feb-05 23:54N 44°09' E 028°39'0 0.0
2018-Feb-05 23:29N 44°09' E 028°39'0 0.0
2018-Feb-05 23:00N 44°09' E 028°39'0 0.0
2018-Feb-05 22:28N 44°09' E 028°39'0 0.0
2018-Feb-05 21:54N 44°09' E 028°39'0 0.0
2018-Feb-05 21:28N 44°09' E 028°39'0 0.0
2018-Feb-05 20:59N 44°09' E 028°39'0 0.0
2018-Feb-05 20:25N 44°09' E 028°39'0 0.0
2018-Feb-05 19:59N 44°09' E 028°39'0 0.0
2018-Feb-05 19:28N 44°09' E 028°39'0 0.0
2018-Feb-05 18:59N 44°09' E 028°39'0 0.0
2018-Feb-05 18:30N 44°09' E 028°39'0 0.0
2018-Feb-05 18:00N 44°09' E 028°39'0 0.0
2018-Feb-05 17:30N 44°09' E 028°39'0 0.0
2018-Feb-05 16:57N 44°09' E 028°39'0 0.0
2018-Feb-05 16:27N 44°09' E 028°39'0 0.0
2018-Feb-05 15:59N 44°09' E 028°39'0 0.0
2018-Feb-05 15:30N 44°09' E 028°39'0 0.0
2018-Feb-05 14:59N 44°09' E 028°39'0 0.0
2018-Feb-05 14:29N 44°09' E 028°39'0 0.0
2018-Feb-05 13:58N 44°09' E 028°39'0 0.0
2018-Feb-05 13:28N 44°09' E 028°39'0 0.0
2018-Feb-05 13:00N 44°09' E 028°39'0 0.2
2018-Feb-05 11:29N 44°10' E 028°39'0 0.0
2018-Feb-05 10:54N 44°10' E 028°39'0 0.0
2018-Feb-05 10:28N 44°10' E 028°39'0 0.0
2018-Feb-05 09:39N 44°10' E 028°39'0 0.0
2018-Feb-05 09:23N 44°10' E 028°39'0 0.0
2018-Feb-05 08:59N 44°10' E 028°39'0 0.0
2018-Feb-05 08:30N 44°10' E 028°39'0 0.0
2018-Feb-05 07:58N 44°10' E 028°39'0 0.0
2018-Feb-05 07:30N 44°10' E 028°39'0 0.0
2018-Feb-05 06:57N 44°10' E 028°39'0 0.0
2018-Feb-05 06:25N 44°10' E 028°39'0 0.0
2018-Feb-05 05:30N 44°10' E 028°39'0 0.0
2018-Feb-05 04:58N 44°10' E 028°39'0 0.0
2018-Feb-05 04:24N 44°10' E 028°39'0 0.0
2018-Feb-05 03:59N 44°10' E 028°39'0 0.0
2018-Feb-05 03:28N 44°10' E 028°39'0 0.0
2018-Feb-05 02:57N 44°10' E 028°39'0 0.0
2018-Feb-05 02:26N 44°10' E 028°39'0 0.0
2018-Feb-05 01:58N 44°10' E 028°39'0 0.0
2018-Feb-05 01:30N 44°10' E 028°39'0 0.0
2018-Feb-05 01:00N 44°10' E 028°39'0 0.0
2018-Feb-05 00:26N 44°10' E 028°39'0 0.0
2018-Feb-04 23:55N 44°10' E 028°39'0 0.0
2018-Feb-04 23:29N 44°10' E 028°39'0 0.0
2018-Feb-04 22:58N 44°10' E 028°39'0 0.0
2018-Feb-04 22:30N 44°10' E 028°39'0 0.0
2018-Feb-04 22:00N 44°10' E 028°39'0 0.0
2018-Feb-04 21:23N 44°10' E 028°39'0 0.0
2018-Feb-04 20:59N 44°10' E 028°39'0 0.0
2018-Feb-04 20:00N 44°10' E 028°39'0 0.0
2018-Feb-04 19:28N 44°10' E 028°39'0 0.0
2018-Feb-04 18:57N 44°10' E 028°39'0 0.0
2018-Feb-04 18:30N 44°10' E 028°39'0 0.0
2018-Feb-04 18:00N 44°10' E 028°39'0 0.0
2018-Feb-04 17:28N 44°10' E 028°39'0 0.0
2018-Feb-04 15:28N 44°10' E 028°39'0 0.1
2018-Feb-04 15:00N 44°10' E 028°39'0 0.0
2018-Feb-04 14:26N 44°10' E 028°39'0 0.0
2018-Feb-04 13:59N 44°10' E 028°39'0 0.0
2018-Feb-04 13:28N 44°10' E 028°39'0 0.0
2018-Feb-04 12:58N 44°10' E 028°39'0 0.0
2018-Feb-04 12:25N 44°10' E 028°39'0 0.0
2018-Feb-04 11:48N 44°10' E 028°39'0 0.0
2018-Feb-04 11:28N 44°10' E 028°39'0 0.0
2018-Feb-04 10:00N 44°10' E 028°39'0 0.0
2018-Feb-04 08:58N 44°10' E 028°39'0 0.0
2018-Feb-04 08:30N 44°10' E 028°39'0 0.0
2018-Feb-04 07:55N 44°10' E 028°39'0 0.1
2018-Feb-04 07:29N 44°10' E 028°39'0 0.0
2018-Feb-04 06:59N 44°10' E 028°39'0 0.0
2018-Feb-04 06:30N 44°10' E 028°39'0 0.0
2018-Feb-04 06:00N 44°10' E 028°39'0 0.0
2018-Feb-04 05:29N 44°10' E 028°39'0 0.0
2018-Feb-04 05:00N 44°10' E 028°39'0 0.0
2018-Feb-04 04:30N 44°10' E 028°39'0 0.0
2018-Feb-04 03:58N 44°10' E 028°39'0 0.0
2018-Feb-04 03:30N 44°10' E 028°39'0 0.0
2018-Feb-04 02:59N 44°10' E 028°39'0 0.0
2018-Feb-04 02:30N 44°10' E 028°39'0 0.0
2018-Feb-04 02:00N 44°10' E 028°39'0 0.0
2018-Feb-04 01:28N 44°10' E 028°39'0 0.0
2018-Feb-04 00:57N 44°10' E 028°39'0 0.0
2018-Feb-04 00:26N 44°10' E 028°39'0 0.0
2018-Feb-03 23:59N 44°10' E 028°39'0 0.0
2018-Feb-03 23:30N 44°10' E 028°39'0 0.0
2018-Feb-03 22:57N 44°10' E 028°39'0 0.0
2018-Feb-03 22:29N 44°10' E 028°39'0 0.0
2018-Feb-03 21:59N 44°10' E 028°39'0 0.1
2018-Feb-03 21:29N 44°10' E 028°39'0 0.0
2018-Feb-03 21:00N 44°10' E 028°39'0 0.0
2018-Feb-03 20:30N 44°10' E 028°39'0 0.0
2018-Feb-03 19:58N 44°10' E 028°39'0 0.0
2018-Feb-03 18:28N 44°10' E 028°39'0 0.0
2018-Feb-03 18:00N 44°10' E 028°39'0 0.0
2018-Feb-03 17:29N 44°10' E 028°39'0 0.0
2018-Feb-03 17:00N 44°10' E 028°39'0 0.0
2018-Feb-03 15:54N 44°10' E 028°39'0 0.0
2018-Feb-03 15:30N 44°10' E 028°39'0 0.0
2018-Feb-03 14:56N 44°10' E 028°39'0 0.0
2018-Feb-03 14:26N 44°10' E 028°39'0 0.0
2018-Feb-03 13:59N 44°10' E 028°39'0 0.0
2018-Feb-03 13:29N 44°10' E 028°39'0 0.0
2018-Feb-03 13:00N 44°10' E 028°39'  
2018-Jan-30 06:21N 40°46' E 028°52'0 0.5
2018-Jan-30 05:55N 40°46' E 028°52'0 0.5
2018-Jan-30 05:30N 40°47' E 028°52'0 0.7
2018-Jan-30 05:00N 40°47' E 028°52'0 0.6
2018-Jan-30 04:29N 40°47' E 028°53'0 0.6
2018-Jan-30 04:00N 40°47' E 028°53'0 0.7
2018-Jan-30 03:25N 40°48' E 028°53'0 0.7
2018-Jan-30 03:00N 40°48' E 028°53'0 0.9
2018-Jan-30 02:27N 40°48' E 028°54'1 1.0
2018-Jan-30 01:52N 40°49' E 028°54'0 1.2
2018-Jan-30 01:30N 40°49' E 028°54'2 3.1
2018-Jan-30 00:51N 40°51' E 028°52'237 8.4
2018-Jan-28 20:40N 37°39' E 025°53'1 9.7
2018-Jan-28 20:31N 37°37' E 025°53'510.0
2018-Jan-28 20:01N 37°32' E 025°55'23210.5
2018-Jan-27 21:50N 36°05' E 030°24'411.6
2018-Jan-27 21:30N 36°07' E 030°28'612.4
2018-Jan-27 21:00N 36°12' E 030°32'612.3
2018-Jan-27 20:29N 36°18' E 030°36'612.0
2018-Jan-27 20:00N 36°23' E 030°39'612.0
2018-Jan-27 19:29N 36°29' E 030°40'611.9
2018-Jan-27 19:01N 36°35' E 030°40'  
Track history (hours):
 
Tides and Currents Weather Stations Pressure Air Temp Water Temp Dewpoint Dewpoint Depression Visibility Wind Speed Wind Dir Waves Ship Positions

I Maria

Last reported at 2018-Feb-06 18:46 UTC. Time now 2018-Feb-20 00:17 UTC.
Position N 43°39' E 028°52'.
Warning: this ship's position is 13 days out of date.

Length 180 m; draft 9.9 m.

Type: Cargo ship. MMSI: 312175000.

Date/timePositionNaut miles runAvg speedWind from/ knotsBaromVisibWave heightAir tempDewpointWater temp
2018-Feb-06 18:46N 43°39' E 028°52'3 9.7
2018-Feb-06 18:30N 43°41' E 028°52'5 9.6
2018-Feb-06 18:00N 43°46' E 028°51'5 9.6
2018-Feb-06 17:30N 43°51' E 028°50'5 9.4
2018-Feb-06 17:00N 43°55' E 028°49'5 9.2
2018-Feb-06 16:30N 43°60' E 028°47'5 9.1
2018-Feb-06 16:00N 44°03' E 028°43'4 7.5
2018-Feb-06 15:30N 44°07' E 028°41'3 5.4
2018-Feb-06 15:00N 44°09' E 028°40'0 0.8
2018-Feb-06 14:25N 44°09' E 028°39'0 0.0
2018-Feb-06 13:53N 44°09' E 028°39'0 0.0
2018-Feb-06 13:23N 44°09' E 028°39'0 0.0
2018-Feb-06 12:56N 44°09' E 028°39'0 0.0
2018-Feb-06 12:25N 44°09' E 028°39'0 0.0
2018-Feb-06 11:59N 44°09' E 028°39'0 0.0
2018-Feb-06 11:21N 44°09' E 028°39'0 0.0
2018-Feb-06 11:00N 44°09' E 028°39'0 0.0
2018-Feb-06 10:28N 44°09' E 028°39'0 0.0
2018-Feb-06 10:00N 44°09' E 028°39'0 0.0
2018-Feb-06 09:30N 44°09' E 028°39'0 0.0
2018-Feb-06 08:54N 44°09' E 028°39'0 0.0
2018-Feb-06 08:29N 44°09' E 028°39'0 0.0
2018-Feb-06 08:00N 44°09' E 028°39'0 0.0
2018-Feb-06 07:28N 44°09' E 028°39'0 0.0
2018-Feb-06 07:00N 44°09' E 028°39'0 0.0
2018-Feb-06 06:29N 44°09' E 028°39'0 0.0
2018-Feb-06 06:00N 44°09' E 028°39'0 0.0
2018-Feb-06 05:28N 44°09' E 028°39'0 0.0
2018-Feb-06 04:58N 44°09' E 028°39'0 0.0
2018-Feb-06 04:30N 44°09' E 028°39'0 0.0
2018-Feb-06 04:00N 44°09' E 028°39'0 0.0
2018-Feb-06 03:29N 44°09' E 028°39'0 0.0
2018-Feb-06 02:58N 44°09' E 028°39'0 0.0
2018-Feb-06 02:30N 44°09' E 028°39'0 0.0
2018-Feb-06 02:00N 44°09' E 028°39'0 0.0
2018-Feb-06 01:30N 44°09' E 028°39'0 0.0
2018-Feb-06 00:59N 44°09' E 028°39'0 0.0
2018-Feb-06 00:28N 44°09' E 028°39'0 0.0
2018-Feb-05 23:54N 44°09' E 028°39'0 0.0
2018-Feb-05 23:29N 44°09' E 028°39'0 0.0
2018-Feb-05 23:00N 44°09' E 028°39'0 0.0
2018-Feb-05 22:28N 44°09' E 028°39'0 0.0
2018-Feb-05 21:54N 44°09' E 028°39'0 0.0
2018-Feb-05 21:28N 44°09' E 028°39'0 0.0
2018-Feb-05 20:59N 44°09' E 028°39'0 0.0
2018-Feb-05 20:25N 44°09' E 028°39'0 0.0
2018-Feb-05 19:59N 44°09' E 028°39'0 0.0
2018-Feb-05 19:28N 44°09' E 028°39'0 0.0
2018-Feb-05 18:59N 44°09' E 028°39'0 0.0
2018-Feb-05 18:30N 44°09' E 028°39'0 0.0
2018-Feb-05 18:00N 44°09' E 028°39'0 0.0
2018-Feb-05 17:30N 44°09' E 028°39'0 0.0
2018-Feb-05 16:57N 44°09' E 028°39'0 0.0
2018-Feb-05 16:27N 44°09' E 028°39'0 0.0
2018-Feb-05 15:59N 44°09' E 028°39'0 0.0
2018-Feb-05 15:30N 44°09' E 028°39'0 0.0
2018-Feb-05 14:59N 44°09' E 028°39'0 0.0
2018-Feb-05 14:29N 44°09' E 028°39'0 0.0
2018-Feb-05 13:58N 44°09' E 028°39'0 0.0
2018-Feb-05 13:28N 44°09' E 028°39'0 0.0
2018-Feb-05 13:00N 44°09' E 028°39'0 0.2
2018-Feb-05 11:29N 44°10' E 028°39'0 0.0
2018-Feb-05 10:54N 44°10' E 028°39'0 0.0
2018-Feb-05 10:28N 44°10' E 028°39'0 0.0
2018-Feb-05 09:39N 44°10' E 028°39'0 0.0
2018-Feb-05 09:23N 44°10' E 028°39'0 0.0
2018-Feb-05 08:59N 44°10' E 028°39'0 0.0
2018-Feb-05 08:30N 44°10' E 028°39'0 0.0
2018-Feb-05 07:58N 44°10' E 028°39'0 0.0
2018-Feb-05 07:30N 44°10' E 028°39'0 0.0
2018-Feb-05 06:57N 44°10' E 028°39'0 0.0
2018-Feb-05 06:25N 44°10' E 028°39'0 0.0
2018-Feb-05 05:30N 44°10' E 028°39'0 0.0
2018-Feb-05 04:58N 44°10' E 028°39'0 0.0
2018-Feb-05 04:24N 44°10' E 028°39'0 0.0
2018-Feb-05 03:59N 44°10' E 028°39'0 0.0
2018-Feb-05 03:28N 44°10' E 028°39'0 0.0
2018-Feb-05 02:57N 44°10' E 028°39'0 0.0
2018-Feb-05 02:26N 44°10' E 028°39'0 0.0
2018-Feb-05 01:58N 44°10' E 028°39'0 0.0
2018-Feb-05 01:30N 44°10' E 028°39'0 0.0
2018-Feb-05 01:00N 44°10' E 028°39'0 0.0
2018-Feb-05 00:26N 44°10' E 028°39'0 0.0
2018-Feb-04 23:55N 44°10' E 028°39'0 0.0
2018-Feb-04 23:29N 44°10' E 028°39'0 0.0
2018-Feb-04 22:58N 44°10' E 028°39'0 0.0
2018-Feb-04 22:30N 44°10' E 028°39'0 0.0
2018-Feb-04 22:00N 44°10' E 028°39'0 0.0
2018-Feb-04 21:23N 44°10' E 028°39'0 0.0
2018-Feb-04 20:59N 44°10' E 028°39'0 0.0
2018-Feb-04 20:00N 44°10' E 028°39'0 0.0
2018-Feb-04 19:28N 44°10' E 028°39'0 0.0
2018-Feb-04 18:57N 44°10' E 028°39'0 0.0
2018-Feb-04 18:30N 44°10' E 028°39'0 0.0
2018-Feb-04 18:00N 44°10' E 028°39'0 0.0
2018-Feb-04 17:28N 44°10' E 028°39'0 0.0
2018-Feb-04 15:28N 44°10' E 028°39'0 0.1
2018-Feb-04 15:00N 44°10' E 028°39'0 0.0
2018-Feb-04 14:26N 44°10' E 028°39'0 0.0
2018-Feb-04 13:59N 44°10' E 028°39'0 0.0
2018-Feb-04 13:28N 44°10' E 028°39'0 0.0
2018-Feb-04 12:58N 44°10' E 028°39'0 0.0
2018-Feb-04 12:25N 44°10' E 028°39'0 0.0
2018-Feb-04 11:48N 44°10' E 028°39'0 0.0
2018-Feb-04 11:28N 44°10' E 028°39'0 0.0
2018-Feb-04 10:00N 44°10' E 028°39'0 0.0
2018-Feb-04 08:58N 44°10' E 028°39'0 0.0
2018-Feb-04 08:30N 44°10' E 028°39'0 0.0
2018-Feb-04 07:55N 44°10' E 028°39'0 0.1
2018-Feb-04 07:29N 44°10' E 028°39'0 0.0
2018-Feb-04 06:59N 44°10' E 028°39'0 0.0
2018-Feb-04 06:30N 44°10' E 028°39'0 0.0
2018-Feb-04 06:00N 44°10' E 028°39'0 0.0
2018-Feb-04 05:29N 44°10' E 028°39'0 0.0
2018-Feb-04 05:00N 44°10' E 028°39'0 0.0
2018-Feb-04 04:30N 44°10' E 028°39'0 0.0
2018-Feb-04 03:58N 44°10' E 028°39'0 0.0
2018-Feb-04 03:30N 44°10' E 028°39'0 0.0
2018-Feb-04 02:59N 44°10' E 028°39'0 0.0
2018-Feb-04 02:30N 44°10' E 028°39'0 0.0
2018-Feb-04 02:00N 44°10' E 028°39'0 0.0
2018-Feb-04 01:28N 44°10' E 028°39'0 0.0
2018-Feb-04 00:57N 44°10' E 028°39'0 0.0
2018-Feb-04 00:26N 44°10' E 028°39'0 0.0
2018-Feb-03 23:59N 44°10' E 028°39'0 0.0
2018-Feb-03 23:30N 44°10' E 028°39'0 0.0
2018-Feb-03 22:57N 44°10' E 028°39'0 0.0
2018-Feb-03 22:29N 44°10' E 028°39'0 0.0
2018-Feb-03 21:59N 44°10' E 028°39'0 0.1
2018-Feb-03 21:29N 44°10' E 028°39'0 0.0
2018-Feb-03 21:00N 44°10' E 028°39'0 0.0
2018-Feb-03 20:30N 44°10' E 028°39'0 0.0
2018-Feb-03 19:58N 44°10' E 028°39'0 0.0
2018-Feb-03 18:28N 44°10' E 028°39'0 0.0
2018-Feb-03 18:00N 44°10' E 028°39'0 0.0
2018-Feb-03 17:29N 44°10' E 028°39'0 0.0
2018-Feb-03 17:00N 44°10' E 028°39'0 0.0
2018-Feb-03 15:54N 44°10' E 028°39'0 0.0
2018-Feb-03 15:30N 44°10' E 028°39'0 0.0
2018-Feb-03 14:56N 44°10' E 028°39'0 0.0
2018-Feb-03 14:26N 44°10' E 028°39'0 0.0
2018-Feb-03 13:59N 44°10' E 028°39'0 0.0
2018-Feb-03 13:29N 44°10' E 028°39'0 0.0
2018-Feb-03 13:00N 44°10' E 028°39'  
2018-Jan-30 06:21N 40°46' E 028°52'0 0.5
2018-Jan-30 05:55N 40°46' E 028°52'0 0.5
2018-Jan-30 05:30N 40°47' E 028°52'0 0.7
2018-Jan-30 05:00N 40°47' E 028°52'0 0.6
2018-Jan-30 04:29N 40°47' E 028°53'0 0.6
2018-Jan-30 04:00N 40°47' E 028°53'0 0.7
2018-Jan-30 03:25N 40°48' E 028°53'0 0.7
2018-Jan-30 03:00N 40°48' E 028°53'0 0.9
2018-Jan-30 02:27N 40°48' E 028°54'1 1.0
2018-Jan-30 01:52N 40°49' E 028°54'0 1.2
2018-Jan-30 01:30N 40°49' E 028°54'2 3.1
2018-Jan-30 00:51N 40°51' E 028°52'237 8.4
2018-Jan-28 20:40N 37°39' E 025°53'1 9.7
2018-Jan-28 20:31N 37°37' E 025°53'510.0
2018-Jan-28 20:01N 37°32' E 025°55'23210.5
2018-Jan-27 21:50N 36°05' E 030°24'411.6
2018-Jan-27 21:30N 36°07' E 030°28'612.4
2018-Jan-27 21:00N 36°12' E 030°32'612.3
2018-Jan-27 20:29N 36°18' E 030°36'612.0
2018-Jan-27 20:00N 36°23' E 030°39'612.0
2018-Jan-27 19:29N 36°29' E 030°40'611.9
2018-Jan-27 19:01N 36°35' E 030°40'  

Dump ship's entire track history